Time;durP1;ratioP1;P1;durP2;ratioP2;P2;SDS_P1;SDS_P2;PMS_P1;PMS_P2;Temp;Humidity;BMP_temperature;BMP_pressure;BME280_temperature;BME280_humidity;BME280_pressure;Samples;Min_cycle;Max_cycle;Signal;HPM_P1;HPM_P2
2021/09/19 00:01:20;;;;;;;4.13;1.80;;;19.70;83.20;;;;;;5012580;28;20041;-73
2021/09/19 00:03:46;;;;;;;3.95;1.80;;;19.60;83.00;;;;;;5012706;28;20025;-73
2021/09/19 00:06:12;;;;;;;4.35;1.63;;;19.70;83.20;;;;;;4995284;28;20022;-73
2021/09/19 00:08:37;;;;;;;3.38;1.70;;;19.70;84.00;;;;;;5012814;28;20030;-73
2021/09/19 00:11:03;;;;;;;3.17;1.73;;;19.70;83.30;;;;;;4994441;28;20022;-73
2021/09/19 00:13:29;;;;;;;3.78;1.70;;;19.70;83.30;;;;;;5012577;28;20036;-72
2021/09/19 00:15:55;;;;;;;2.95;1.70;;;19.70;83.20;;;;;;4994987;28;20026;-72
2021/09/19 00:18:21;;;;;;;3.63;2.00;;;19.60;83.00;;;;;;4994925;28;20104;-73
2021/09/19 00:20:46;;;;;;;4.55;1.90;;;19.60;83.00;;;;;;5012231;28;20022;-73
2021/09/19 00:23:12;;;;;;;3.35;1.70;;;19.60;83.00;;;;;;5012313;28;20460;-74
2021/09/19 00:25:38;;;;;;;2.88;1.60;;;19.70;83.10;;;;;;5012380;28;20034;-73
2021/09/19 00:28:05;;;;;;;2.28;1.63;;;19.70;83.10;;;;;;4994969;28;20025;-74
2021/09/19 00:30:30;;;;;;;4.47;1.70;;;19.60;82.90;;;;;;5012012;28;20030;-73
2021/09/19 00:32:57;;;;;;;4.28;1.60;;;19.70;83.20;;;;;;4994585;28;20024;-72
2021/09/19 00:35:22;;;;;;;3.28;1.77;;;19.60;82.90;;;;;;4994764;28;20112;-73
2021/09/19 00:37:48;;;;;;;2.85;1.40;;;19.70;83.10;;;;;;4994710;28;20113;-72
2021/09/19 00:40:13;;;;;;;3.08;1.45;;;19.70;82.90;;;;;;5012043;28;20483;-73
2021/09/19 00:42:39;;;;;;;3.75;1.58;;;19.70;83.10;;;;;;4994879;28;20021;-73
2021/09/19 00:45:17;;;;;;;3.05;1.40;;;19.70;83.20;;;;;;4994809;28;20025;-74
2021/09/19 00:47:43;;;;;;;3.00;1.48;;;19.70;83.10;;;;;;5012504;28;20018;-73
2021/09/19 00:50:12;;;;;;;4.75;2.15;;;19.60;83.10;;;;;;5012157;28;20022;-73
2021/09/19 00:52:40;;;;;;;3.42;1.50;;;19.60;83.10;;;;;;4994790;28;20053;-73
2021/09/19 00:55:07;;;;;;;3.58;1.58;;;19.60;83.00;;;;;;4994811;28;20030;-73
2021/09/19 00:57:38;;;;;;;3.38;1.58;;;19.60;83.10;;;;;;4994599;28;20026;-73
2021/09/19 01:00:06;;;;;;;3.50;1.60;;;19.60;83.10;;;;;;4994384;28;20073;-73
2021/09/19 01:02:32;;;;;;;4.30;1.65;;;19.60;83.00;;;;;;5012006;28;20037;-73
2021/09/19 01:04:58;;;;;;;2.10;1.40;;;19.60;83.20;;;;;;4994540;28;20029;-72
2021/09/19 01:07:23;;;;;;;3.05;1.67;;;19.60;83.30;;;;;;5012251;28;20037;-72
2021/09/19 01:09:51;;;;;;;3.05;1.48;;;19.60;83.20;;;;;;4994489;28;20044;-73
2021/09/19 01:12:23;;;;;;;2.70;1.55;;;19.60;83.10;;;;;;5011779;28;20022;-73
2021/09/19 01:14:49;;;;;;;4.30;1.65;;;19.60;83.20;;;;;;5012228;28;20650;-73
2021/09/19 01:17:16;;;;;;;3.15;1.63;;;19.60;83.00;;;;;;4994531;28;20499;-73
2021/09/19 01:19:44;;;;;;;3.40;1.60;;;19.70;83.20;;;;;;4994735;28;20069;-73
2021/09/19 01:22:09;;;;;;;3.38;1.60;;;19.60;83.10;;;;;;4994291;28;20026;-73
2021/09/19 01:24:35;;;;;;;2.35;1.45;;;19.60;83.00;;;;;;5015451;28;20041;-73
2021/09/19 01:27:01;;;;;;;2.45;1.42;;;19.60;82.90;;;;;;5015671;28;20163;-73
2021/09/19 01:29:27;;;;;;;4.05;1.50;;;19.60;83.00;;;;;;4998173;28;20026;-73
2021/09/19 01:31:52;;;;;;;2.42;1.50;;;19.60;83.10;;;;;;4997875;28;20080;-73
2021/09/19 01:34:18;;;;;;;3.83;1.70;;;19.60;82.90;;;;;;5015439;28;20493;-76
2021/09/19 01:36:43;;;;;;;3.55;1.65;;;19.60;83.20;;;;;;5015771;28;20035;-75
2021/09/19 01:39:10;;;;;;;2.22;1.50;;;19.60;83.20;;;;;;4997980;28;20026;-72
2021/09/19 01:41:37;;;;;;;2.25;1.45;;;19.60;83.10;;;;;;5015255;28;20073;-73
2021/09/19 01:44:07;;;;;;;3.22;1.63;;;19.60;83.10;;;;;;5015051;28;20022;-73
2021/09/19 01:46:34;;;;;;;4.10;1.65;;;19.60;82.90;;;;;;4997802;28;20555;-74
2021/09/19 01:48:59;;;;;;;3.22;1.60;;;19.60;82.70;;;;;;5015420;28;20395;-73
2021/09/19 01:51:25;;;;;;;2.00;1.30;;;19.60;82.80;;;;;;4997340;28;20026;-72
2021/09/19 01:53:51;;;;;;;3.47;1.77;;;19.60;82.70;;;;;;5015299;28;20026;-73
2021/09/19 01:56:18;;;;;;;3.53;1.55;;;19.60;82.90;;;;;;4997739;28;20515;-74
2021/09/19 01:58:50;;;;;;;3.78;1.67;;;19.60;82.90;;;;;;5015197;28;20458;-73
2021/09/19 02:01:16;;;;;;;;;;;19.60;82.90;;;;;;5015399;28;20108;-73
2021/09/19 02:03:41;;;;;;;3.65;1.80;;;19.60;82.80;;;;;;5014952;28;19945;-73
2021/09/19 02:06:08;;;;;;;3.75;1.80;;;19.60;82.80;;;;;;5015065;28;20084;-74
2021/09/19 02:08:37;;;;;;;3.38;1.95;;;19.60;82.80;;;;;;5010115;28;20121;-74
2021/09/19 02:11:08;;;;;;;3.30;1.77;;;19.60;82.80;;;;;;4996793;28;20021;-73
2021/09/19 02:13:35;;;;;;;3.58;2.00;;;19.60;82.90;;;;;;4997546;28;20034;-73
2021/09/19 02:16:02;;;;;;;3.30;1.85;;;19.60;82.90;;;;;;5014852;28;20026;-73
2021/09/19 02:18:27;;;;;;;3.65;1.80;;;19.50;83.00;;;;;;4997137;28;20050;-74
2021/09/19 02:20:53;;;;;;;3.63;1.88;;;19.50;82.80;;;;;;4996954;28;20176;-73
2021/09/19 02:23:19;;;;;;;3.55;1.92;;;19.50;83.10;;;;;;5014746;28;20029;-72
2021/09/19 02:25:45;;;;;;;4.20;2.00;;;19.50;83.00;;;;;;4997055;28;20041;-73
2021/09/19 02:28:12;;;;;;;4.93;2.03;;;19.50;83.00;;;;;;5014563;28;20077;-72
2021/09/19 02:30:37;;;;;;;4.47;1.98;;;19.50;83.00;;;;;;5014333;28;20476;-73
2021/09/19 02:33:03;;;;;;;3.90;1.83;;;19.60;83.10;;;;;;4997073;28;20048;-73
2021/09/19 02:35:28;;;;;;;6.30;2.17;;;19.50;82.90;;;;;;5013890;28;20022;-73
2021/09/19 02:37:54;;;;;;;4.40;1.90;;;19.50;83.00;;;;;;4996921;28;20029;-73
2021/09/19 02:40:20;;;;;;;5.18;2.45;;;19.50;82.90;;;;;;5014182;28;20026;-72
2021/09/19 02:42:47;;;;;;;3.95;2.08;;;19.50;82.90;;;;;;4996739;28;20113;-73
2021/09/19 02:45:13;;;;;;;3.70;1.90;;;19.50;83.10;;;;;;5013908;28;20040;-71
2021/09/19 02:47:39;;;;;;;3.78;2.00;;;19.50;83.10;;;;;;4996702;28;20061;-73
2021/09/19 02:50:06;;;;;;;4.10;1.77;;;19.50;82.80;;;;;;4996467;28;20451;-72
2021/09/19 02:52:32;;;;;;;5.30;2.08;;;19.50;83.20;;;;;;4996629;28;20411;-73
2021/09/19 02:54:57;;;;;;;4.15;2.20;;;19.50;83.00;;;;;;4996738;28;20026;-73
2021/09/19 02:57:23;;;;;;;3.60;1.90;;;19.50;83.10;;;;;;5014097;28;20026;-73
2021/09/19 02:59:48;;;;;;;3.80;1.88;;;19.50;83.10;;;;;;4996407;28;20029;-73
2021/09/19 03:02:14;;;;;;;3.63;2.00;;;19.50;83.20;;;;;;4996186;28;20034;-73
2021/09/19 03:04:39;;;;;;;4.13;2.03;;;19.50;83.20;;;;;;5013876;28;20061;-73
2021/09/19 03:07:05;;;;;;;3.58;1.90;;;19.50;83.00;;;;;;5013862;28;20045;-73
2021/09/19 03:09:30;;;;;;;3.38;1.88;;;19.50;83.10;;;;;;4996225;28;20057;-73
2021/09/19 03:11:56;;;;;;;3.17;2.08;;;19.50;83.10;;;;;;4996075;28;20395;-73
2021/09/19 03:14:21;;;;;;;4.07;1.90;;;19.50;83.00;;;;;;4996199;28;20034;-74
2021/09/19 03:16:47;;;;;;;3.58;2.00;;;19.50;83.00;;;;;;4996211;28;20026;-73
2021/09/19 03:19:12;;;;;;;4.50;2.13;;;19.50;83.10;;;;;;4996179;28;20022;-73
2021/09/19 03:21:38;;;;;;;4.85;2.22;;;19.50;83.10;;;;;;5013121;28;20602;-74
2021/09/19 03:24:04;;;;;;;3.92;2.17;;;19.50;83.10;;;;;;5013578;28;20026;-73
2021/09/19 03:26:29;;;;;;;3.65;2.10;;;19.50;83.00;;;;;;5013371;28;20557;-73
2021/09/19 03:28:55;;;;;;;6.38;2.33;;;19.50;83.00;;;;;;5013480;28;20026;-74
2021/09/19 03:31:21;;;;;;;3.80;2.13;;;19.50;83.00;;;;;;4995442;28;20062;-72
2021/09/19 03:33:46;;;;;;;4.03;1.90;;;19.50;82.90;;;;;;4995692;28;20030;-73
2021/09/19 03:36:12;;;;;;;4.53;2.17;;;19.50;83.00;;;;;;4995802;28;20488;-75
2021/09/19 03:38:38;;;;;;;5.00;2.13;;;19.50;83.00;;;;;;4995696;28;20037;-75
2021/09/19 03:41:03;;;;;;;3.40;2.10;;;19.50;82.90;;;;;;4995400;28;20030;-73
2021/09/19 03:43:29;;;;;;;3.70;2.10;;;19.50;83.00;;;;;;4995363;28;20549;-73
2021/09/19 03:45:54;;;;;;;3.97;2.00;;;19.50;83.10;;;;;;5011698;28;20018;-74
2021/09/19 03:48:20;;;;;;;5.00;2.17;;;19.50;83.20;;;;;;4995156;28;20026;-74
2021/09/19 03:50:46;;;;;;;5.90;2.10;;;19.50;83.10;;;;;;4995288;28;20026;-73
2021/09/19 03:53:12;;;;;;;3.63;2.13;;;19.50;83.00;;;;;;4995583;28;20029;-73
2021/09/19 03:55:37;;;;;;;3.15;1.88;;;19.50;83.10;;;;;;4995427;28;20037;-73
2021/09/19 03:58:03;;;;;;;3.47;2.20;;;19.50;82.90;;;;;;4995285;28;20018;-75
2021/09/19 04:00:29;;;;;;;4.13;2.00;;;19.50;83.10;;;;;;5013069;28;20030;-73
2021/09/19 04:02:54;;;;;;;4.10;2.40;;;19.50;83.10;;;;;;5012748;28;20033;-73
2021/09/19 04:05:20;;;;;;;3.90;2.00;;;19.50;82.90;;;;;;4995359;28;20387;-73
2021/09/19 04:07:46;;;;;;;4.88;2.20;;;19.50;83.10;;;;;;5011607;28;20026;-73
2021/09/19 04:10:12;;;;;;;3.97;2.17;;;19.40;83.00;;;;;;4994585;28;20028;-74
2021/09/19 04:12:39;;;;;;;5.20;2.50;;;19.40;83.00;;;;;;4995037;28;20469;-75
2021/09/19 04:15:06;;;;;;;3.58;2.00;;;19.50;83.10;;;;;;4995131;28;20061;-73
2021/09/19 04:17:31;;;;;;;4.07;2.25;;;19.40;83.10;;;;;;5011724;28;20037;-74
2021/09/19 04:19:57;;;;;;;4.40;2.15;;;19.50;82.90;;;;;;4994653;28;20120;-74
2021/09/19 04:22:25;;;;;;;4.07;2.17;;;19.50;83.00;;;;;;5012721;28;20017;-74
2021/09/19 04:24:54;;;;;;;4.50;2.30;;;19.50;83.80;;;;;;4994976;28;20033;-74
2021/09/19 04:27:20;;;;;;;5.43;2.25;;;19.50;83.50;;;;;;5039134;22;20077;-75
2021/09/19 04:29:46;;;;;;;4.70;2.40;;;19.50;83.40;;;;;;5012710;28;20060;-77
2021/09/19 04:32:12;;;;;;;4.78;2.45;;;19.50;83.20;;;;;;5011350;28;20018;-75
2021/09/19 04:34:37;;;;;;;4.95;2.47;;;19.50;83.50;;;;;;5012500;28;20037;-76
2021/09/19 04:37:03;;;;;;;4.80;2.65;;;19.50;83.40;;;;;;5007162;28;20053;-76
2021/09/19 04:39:28;;;;;;;6.35;2.70;;;19.50;83.10;;;;;;5002853;28;20030;-76
2021/09/19 04:41:54;;;;;;;3.80;2.30;;;19.50;83.00;;;;;;5009071;28;20443;-77
2021/09/19 04:44:19;;;;;;;3.83;2.22;;;19.50;83.10;;;;;;4995363;28;20042;-77
2021/09/19 04:46:45;;;;;;;4.30;2.40;;;19.50;83.20;;;;;;4995308;28;20419;-76
2021/09/19 04:49:10;;;;;;;3.60;2.28;;;19.50;83.30;;;;;;4994193;28;20050;-76
2021/09/19 04:51:36;;;;;;;4.18;2.30;;;19.50;83.30;;;;;;4996534;28;20476;-76
2021/09/19 04:54:01;;;;;;;4.15;2.20;;;19.40;83.00;;;;;;5003567;28;20026;-76
2021/09/19 04:56:28;;;;;;;4.13;2.50;;;19.50;83.30;;;;;;4993798;28;20093;-76
2021/09/19 04:58:53;;;;;;;4.05;2.60;;;19.50;83.20;;;;;;4998441;28;20097;-76
2021/09/19 05:01:19;;;;;;;6.03;2.33;;;19.50;83.00;;;;;;4997061;28;20487;-76
2021/09/19 05:03:44;;;;;;;3.80;2.40;;;19.40;83.10;;;;;;5014805;28;20080;-75
2021/09/19 05:06:11;;;;;;;4.57;2.60;;;19.40;83.00;;;;;;4999737;28;20041;-75
2021/09/19 05:08:36;;;;;;;3.13;2.03;;;19.50;83.10;;;;;;4999512;28;20094;-75
2021/09/19 05:11:02;;;;;;;5.55;2.40;;;19.40;83.10;;;;;;4999146;28;20046;-76
2021/09/19 05:13:28;;;;;;;4.93;3.00;;;19.50;83.30;;;;;;5016998;28;20032;-76
2021/09/19 05:15:54;;;;;;;4.43;2.47;;;19.40;83.10;;;;;;5016803;28;20045;-77
2021/09/19 05:18:19;;;;;;;6.00;2.67;;;19.40;83.10;;;;;;5012987;28;20101;-76
2021/09/19 05:20:45;;;;;;;3.83;2.40;;;19.50;82.90;;;;;;5015155;28;20045;-77
2021/09/19 05:23:10;;;;;;;5.32;3.03;;;19.40;83.00;;;;;;5008829;28;20502;-76
2021/09/19 05:25:36;;;;;;;4.78;2.80;;;19.40;82.90;;;;;;4998014;28;20022;-76
2021/09/19 05:28:02;;;;;;;10.68;2.78;;;19.40;82.90;;;;;;4997519;28;20059;-79
2021/09/19 05:30:27;;;;;;;5.60;2.45;;;19.40;83.50;;;;;;4998095;28;20018;-76
2021/09/19 05:32:53;;;;;;;5.20;2.60;;;19.40;83.30;;;;;;5009809;28;20022;-76
2021/09/19 05:35:19;;;;;;;4.43;2.60;;;19.40;83.10;;;;;;4997382;28;20069;-77
2021/09/19 05:37:44;;;;;;;4.85;2.58;;;19.40;82.90;;;;;;5007766;28;20030;-76
2021/09/19 05:40:10;;;;;;;5.35;2.60;;;19.40;83.10;;;;;;5017462;28;20076;-76
2021/09/19 05:42:36;;;;;;;3.83;2.33;;;19.50;83.40;;;;;;5016735;28;20022;-76
2021/09/19 05:45:02;;;;;;;4.80;2.63;;;19.40;83.00;;;;;;5015719;28;20079;-76
2021/09/19 05:47:28;;;;;;;4.85;2.60;;;19.50;83.00;;;;;;5016636;28;20113;-76
2021/09/19 05:49:54;;;;;;;6.72;2.70;;;19.40;82.80;;;;;;5015893;28;20068;-77
2021/09/19 05:52:19;;;;;;;5.47;2.72;;;19.40;83.10;;;;;;5016337;28;20029;-76
2021/09/19 05:54:45;;;;;;;5.22;2.60;;;19.40;83.20;;;;;;5014477;28;20048;-76
2021/09/19 05:57:10;;;;;;;4.97;2.50;;;19.50;83.30;;;;;;5013307;28;20390;-76
2021/09/19 05:59:36;;;;;;;5.07;2.50;;;19.50;83.00;;;;;;5025675;28;20499;-77
2021/09/19 06:02:02;;;;;;;4.13;2.60;;;19.50;82.70;;;;;;5013242;28;20426;-77
2021/09/19 06:04:27;;;;;;;4.65;2.72;;;19.50;82.70;;;;;;5012734;28;20764;-77
2021/09/19 06:06:53;;;;;;;5.10;2.42;;;19.50;83.00;;;;;;5011676;28;20072;-77
2021/09/19 06:09:19;;;;;;;4.57;2.80;;;19.50;83.00;;;;;;5008336;28;20026;-75
2021/09/19 06:11:44;;;;;;;6.30;2.80;;;19.50;82.80;;;;;;5013198;28;20490;-77
2021/09/19 06:14:10;;;;;;;5.68;2.75;;;19.50;82.90;;;;;;5010696;28;20557;-77
2021/09/19 06:16:36;;;;;;;5.97;3.03;;;19.50;82.70;;;;;;5015703;28;20026;-77
2021/09/19 06:19:03;;;;;;;4.70;2.90;;;19.50;82.90;;;;;;5012726;28;20037;-77
2021/09/19 06:21:29;;;;;;;4.70;2.72;;;19.50;82.90;;;;;;5020523;28;20071;-77
2021/09/19 06:23:55;;;;;;;4.97;2.80;;;19.50;82.50;;;;;;5032139;28;20065;-76
2021/09/19 06:26:20;;;;;;;4.38;2.65;;;19.50;82.80;;;;;;5025597;28;20030;-77
2021/09/19 06:28:46;;;;;;;7.50;3.22;;;19.50;83.10;;;;;;5025229;28;20025;-77
2021/09/19 06:31:12;;;;;;;4.95;3.33;;;19.50;82.70;;;;;;5031573;28;20021;-76
2021/09/19 06:33:38;;;;;;;6.18;2.92;;;19.50;82.90;;;;;;5031480;28;20029;-78
2021/09/19 06:36:04;;;;;;;6.60;2.95;;;19.50;82.70;;;;;;5031082;28;20022;-77
2021/09/19 06:38:30;;;;;;;4.88;2.67;;;19.50;82.70;;;;;;5032931;28;20025;-77
2021/09/19 06:40:55;;;;;;;7.78;3.20;;;19.50;82.60;;;;;;5031431;28;20026;-76
2021/09/19 06:43:21;;;;;;;4.50;2.42;;;19.50;82.60;;;;;;5031126;28;20034;-77
2021/09/19 06:45:47;;;;;;;3.83;2.50;;;19.50;82.60;;;;;;5032234;28;20025;-76
2021/09/19 06:48:12;;;;;;;4.43;2.60;;;19.50;82.80;;;;;;5030437;28;20112;-76
2021/09/19 06:50:38;;;;;;;8.35;2.72;;;19.60;82.60;;;;;;5014220;28;20444;-76
2021/09/19 06:53:04;;;;;;;7.35;3.38;;;19.60;82.60;;;;;;5010206;28;20029;-76
2021/09/19 06:55:29;;;;;;;10.25;4.53;;;19.50;81.90;;;;;;5008177;28;20550;-76
2021/09/19 06:57:56;;;;;;;8.93;5.18;;;19.40;81.20;;;;;;5002699;28;20026;-77
2021/09/19 07:00:21;;;;;;;10.50;5.03;;;19.30;80.50;;;;;;4991190;28;20030;-74
2021/09/19 07:02:47;;;;;;;10.07;5.40;;;19.20;80.20;;;;;;4993503;28;20030;-76
2021/09/19 07:05:12;;;;;;;10.25;5.07;;;19.00;80.20;;;;;;4991432;28;20061;-76
2021/09/19 07:07:38;;;;;;;8.30;4.88;;;19.10;80.70;;;;;;5009385;28;20435;-77
2021/09/19 07:10:04;;;;;;;11.00;5.00;;;19.20;80.60;;;;;;5008809;28;20570;-77
2021/09/19 07:12:30;;;;;;;9.27;4.93;;;19.20;80.10;;;;;;4993136;28;20034;-75
2021/09/19 07:14:56;;;;;;;16.27;4.97;;;19.30;79.70;;;;;;4991740;28;20084;-76
2021/09/19 07:17:21;;;;;;;8.90;4.72;;;19.30;79.30;;;;;;5004894;28;20026;-76
2021/09/19 07:19:47;;;;;;;7.15;4.68;;;19.20;79.60;;;;;;5006255;28;20042;-77
2021/09/19 07:22:13;;;;;;;13.05;4.97;;;19.30;79.40;;;;;;5009664;28;20026;-78
2021/09/19 07:24:38;;;;;;;10.75;5.20;;;19.30;79.80;;;;;;5014267;28;20033;-78
2021/09/19 07:27:06;;;;;;;7.53;4.40;;;19.30;79.20;;;;;;5015944;28;20146;-76
2021/09/19 07:29:32;;;;;;;8.15;4.82;;;19.40;79.10;;;;;;5023426;28;20747;-77
2021/09/19 07:32:01;;;;;;;8.63;4.80;;;19.40;78.30;;;;;;5016471;28;20025;-75
2021/09/19 07:34:28;;;;;;;8.45;4.90;;;19.50;78.50;;;;;;5009065;28;20407;-75
2021/09/19 07:36:54;;;;;;;8.80;4.88;;;19.50;78.10;;;;;;5001465;28;20509;-77
2021/09/19 07:39:20;;;;;;;7.38;4.50;;;19.50;78.10;;;;;;5010180;28;20125;-76
2021/09/19 07:41:48;;;;;;;10.02;5.03;;;19.50;78.00;;;;;;5009944;28;20029;-78
2021/09/19 07:44:14;;;;;;;7.90;5.10;;;19.50;78.20;;;;;;5012475;28;20037;-77
2021/09/19 07:46:40;;;;;;;7.65;4.72;;;19.40;78.40;;;;;;5003835;28;20026;-77
2021/09/19 07:49:06;;;;;;;9.48;5.18;;;19.30;78.50;;;;;;5001859;28;20109;-77
2021/09/19 07:51:32;;;;;;;8.68;5.13;;;19.20;78.40;;;;;;4990873;28;20461;-76
2021/09/19 07:53:58;;;;;;;8.48;4.80;;;19.20;78.40;;;;;;5009231;28;20480;-76
2021/09/19 07:56:23;;;;;;;8.30;4.75;;;19.30;78.30;;;;;;5022866;28;20029;-77
2021/09/19 07:58:49;;;;;;;10.55;4.63;;;19.30;78.90;;;;;;5014277;28;20034;-77
2021/09/19 08:01:15;;;;;;;7.70;4.47;;;19.40;78.20;;;;;;5011265;28;20029;-77
2021/09/19 08:03:40;;;;;;;7.97;4.22;;;19.50;78.00;;;;;;5013474;28;20029;-77
2021/09/19 08:06:06;;;;;;;10.90;4.82;;;19.50;77.30;;;;;;5011983;28;20018;-77
2021/09/19 08:08:31;;;;;;;7.47;3.90;;;19.60;77.60;;;;;;5012476;28;20022;-77
2021/09/19 08:10:58;;;;;;;7.32;3.97;;;19.50;77.90;;;;;;5013175;28;20028;-77
2021/09/19 08:13:24;;;;;;;10.60;4.18;;;19.50;77.80;;;;;;5013695;28;20026;-78
2021/09/19 08:15:50;;;;;;;11.90;4.40;;;19.50;77.80;;;;;;5004736;28;20056;-77
2021/09/19 08:18:15;;;;;;;7.80;3.60;;;19.50;78.70;;;;;;5011721;28;20022;-76
2021/09/19 08:20:41;;;;;;;12.40;4.32;;;19.50;78.30;;;;;;5013055;28;20038;-77
2021/09/19 08:23:07;;;;;;;14.48;4.72;;;19.60;78.50;;;;;;5013117;28;20024;-77
2021/09/19 08:25:32;;;;;;;10.85;3.90;;;19.60;79.10;;;;;;5010641;28;20018;-77
2021/09/19 08:27:58;;;;;;;11.90;3.80;;;19.60;78.40;;;;;;5012032;28;20036;-75
2021/09/19 08:30:24;;;;;;;12.63;4.20;;;19.60;78.50;;;;;;5011010;28;20025;-75
2021/09/19 08:32:50;;;;;;;12.88;4.43;;;19.60;78.50;;;;;;5009272;28;20030;-77
2021/09/19 08:35:15;;;;;;;12.40;3.47;;;19.60;79.20;;;;;;5006077;28;20018;-76
2021/09/19 08:37:42;;;;;;;13.00;3.70;;;19.70;78.70;;;;;;5011726;28;20033;-77
2021/09/19 08:40:09;;;;;;;11.23;3.67;;;19.60;78.20;;;;;;5011122;28;20026;-77
2021/09/19 08:42:36;;;;;;;10.23;3.53;;;19.60;78.10;;;;;;5011462;28;20022;-78
2021/09/19 08:45:04;;;;;;;8.75;3.53;;;19.60;78.00;;;;;;5011030;28;20483;-77
2021/09/19 08:47:30;;;;;;;12.02;3.88;;;19.60;78.00;;;;;;5011343;28;20038;-77
2021/09/19 08:49:57;;;;;;;7.85;3.67;;;19.60;77.80;;;;;;5007873;28;20515;-77
2021/09/19 08:52:23;;;;;;;9.23;4.07;;;19.60;77.80;;;;;;5013475;28;20475;-76
2021/09/19 08:54:48;;;;;;;6.70;3.15;;;19.70;78.00;;;;;;4996418;28;20045;-78
2021/09/19 08:57:14;;;;;;;6.57;3.30;;;19.60;77.80;;;;;;5005839;28;20041;-77
2021/09/19 08:59:45;;;;;;;8.10;3.35;;;19.60;77.70;;;;;;5002621;28;20038;-76
2021/09/19 09:02:12;;;;;;;9.55;3.70;;;19.60;77.90;;;;;;4997185;28;20041;-76
2021/09/19 09:04:39;;;;;;;7.38;3.00;;;19.60;77.90;;;;;;5011845;28;20113;-77
2021/09/19 09:07:05;;;;;;;7.68;3.08;;;19.70;78.00;;;;;;5008866;28;20022;-77
2021/09/19 09:09:30;;;;;;;6.38;2.95;;;19.70;78.10;;;;;;5010312;28;20029;-77
2021/09/19 09:12:14;;;;;;;6.93;3.30;;;19.60;78.10;;;;;;5001843;28;20121;-76
2021/09/19 09:14:42;;;;;;;5.72;3.05;;;19.70;78.10;;;;;;5010803;28;20061;-78
2021/09/19 09:17:18;;;;;;;6.28;2.80;;;19.60;78.10;;;;;;5011816;28;20395;-77
2021/09/19 09:19:46;;;;;;;6.38;3.17;;;19.60;78.10;;;;;;5011943;28;20105;-76
2021/09/19 09:22:12;;;;;;;5.80;3.03;;;19.60;78.10;;;;;;5000422;28;20053;-76
2021/09/19 09:24:39;;;;;;;6.70;3.00;;;19.70;78.10;;;;;;5010543;28;20104;-76
2021/09/19 09:27:24;;;;;;;5.80;3.30;;;19.70;78.10;;;;;;4998076;28;20556;-76
2021/09/19 09:30:10;;;;;;;6.43;2.95;;;19.70;77.90;;;;;;4991261;28;20026;-77
2021/09/19 09:33:08;;;;;;;7.55;3.15;;;19.70;77.70;;;;;;5000726;28;20553;-77
2021/09/19 09:35:41;;;;;;;5.30;2.65;;;19.80;77.20;;;;;;4978397;28;20104;-76
2021/09/19 09:38:23;;;;;;;7.25;2.72;;;19.80;77.10;;;;;;5006609;28;20030;-77
2021/09/19 09:40:50;;;;;;;5.05;2.67;;;19.80;77.10;;;;;;5008582;28;20044;-76
2021/09/19 09:43:18;;;;;;;6.95;2.65;;;19.80;77.20;;;;;;4990940;28;20368;-76
2021/09/19 09:45:46;;;;;;;6.25;2.55;;;19.80;77.30;;;;;;4993156;28;20018;-75
2021/09/19 09:48:33;;;;;;;4.55;2.70;;;19.80;77.30;;;;;;4995080;28;20022;-77
2021/09/19 09:51:01;;;;;;;5.18;2.17;;;19.80;77.40;;;;;;4996787;28;20030;-76
2021/09/19 09:53:27;;;;;;;5.15;2.55;;;19.70;77.40;;;;;;4996783;28;20026;-77
2021/09/19 09:55:53;;;;;;;5.20;2.70;;;19.80;77.30;;;;;;4997259;28;20101;-78
2021/09/19 09:58:21;;;;;;;4.72;2.60;;;19.80;77.40;;;;;;5014704;28;20041;-78
2021/09/19 10:00:49;;;;;;;5.13;2.75;;;19.80;77.30;;;;;;5014648;28;20397;-77
2021/09/19 10:03:15;;;;;;;4.47;2.45;;;19.80;77.30;;;;;;5004974;28;20069;-77
2021/09/19 10:05:41;;;;;;;4.07;2.28;;;19.80;77.40;;;;;;5015379;28;20018;-76
2021/09/19 10:08:07;;;;;;;5.60;2.42;;;19.70;77.30;;;;;;5000771;28;20119;-77
2021/09/19 10:10:39;;;;;;;6.53;2.60;;;19.70;77.40;;;;;;5012511;28;20036;-78
2021/09/19 10:13:05;;;;;;;;;;;19.70;77.40;;;;;;5013305;28;20022;-77
2021/09/19 10:15:31;;;;;;;5.13;2.50;;;19.70;77.40;;;;;;5016728;28;19905;-76
2021/09/19 10:17:57;;;;;;;4.75;2.60;;;19.70;77.50;;;;;;4997696;28;20431;-76
2021/09/19 10:20:48;;;;;;;5.15;2.67;;;19.80;77.40;;;;;;4995650;28;20030;-78
2021/09/19 10:23:20;;;;;;;4.07;2.28;;;19.80;77.50;;;;;;4999623;28;20034;-77
2021/09/19 10:25:54;;;;;;;4.55;2.60;;;19.70;77.40;;;;;;5015384;28;20057;-78
2021/09/19 10:28:39;;;;;;;4.72;2.40;;;19.70;77.40;;;;;;5080764;22;20075;-73
2021/09/19 10:31:28;;;;;;;5.25;2.55;;;19.70;77.40;;;;;;5027334;28;20035;-73
2021/09/19 10:33:58;;;;;;;3.97;2.33;;;19.70;77.30;;;;;;5034045;28;20033;-73
2021/09/19 10:36:31;;;;;;;4.65;2.20;;;19.70;77.30;;;;;;5033610;28;20029;-74
2021/09/19 10:39:27;;;;;;;4.55;2.35;;;19.70;77.30;;;;;;5027247;28;20026;-73
2021/09/19 10:42:15;;;;;;;4.10;2.33;;;19.70;77.30;;;;;;5029286;28;20033;-73
2021/09/19 10:44:48;;;;;;;5.13;2.30;;;19.70;77.20;;;;;;5033679;28;20033;-74
2021/09/19 10:47:25;;;;;;;3.83;2.00;;;19.70;77.30;;;;;;5031756;28;20021;-73
2021/09/19 10:50:24;;;;;;;4.88;2.20;;;19.70;77.40;;;;;;5033332;28;20021;-72
2021/09/19 10:52:52;;;;;;;5.97;2.50;;;19.70;77.40;;;;;;5028071;28;20024;-70
2021/09/19 10:55:33;;;;;;;4.38;2.20;;;19.70;77.30;;;;;;5032421;28;20386;-71
2021/09/19 10:58:00;;;;;;;;;;;19.70;77.20;;;;;;5032146;28;20510;-74
2021/09/19 11:00:34;;;;;;;4.97;2.20;;;19.60;77.10;;;;;;5031100;28;19913;-72
2021/09/19 11:03:13;;;;;;;3.85;1.88;;;19.60;77.10;;;;;;5012538;28;20458;-72
2021/09/19 11:05:52;;;;;;;3.85;2.38;;;19.60;77.10;;;;;;5013218;28;20033;-73
2021/09/19 11:08:20;;;;;;;3.78;2.03;;;19.70;77.20;;;;;;5014059;28;20087;-74
2021/09/19 11:10:46;;;;;;;3.30;1.90;;;19.60;77.10;;;;;;5013981;28;20049;-73
2021/09/19 11:13:21;;;;;;;4.22;2.10;;;19.60;77.00;;;;;;5017035;28;20487;-74
2021/09/19 11:16:02;;;;;;;3.90;2.10;;;19.60;77.00;;;;;;5029828;28;20072;-74
2021/09/19 11:18:41;;;;;;;4.30;2.47;;;19.70;77.20;;;;;;5031648;28;20013;-75
2021/09/19 11:21:10;;;;;;;3.22;1.73;;;19.70;77.30;;;;;;5029553;28;20479;-73
2021/09/19 11:23:39;;;;;;;4.18;2.45;;;19.60;77.00;;;;;;5031125;28;20411;-74
2021/09/19 11:26:31;;;;;;;3.45;1.88;;;19.60;77.10;;;;;;5032924;28;20025;-73
2021/09/19 11:29:04;;;;;;;3.22;1.83;;;19.60;77.10;;;;;;5029280;28;20037;-73
2021/09/19 11:31:31;;;;;;;3.92;2.00;;;19.60;77.10;;;;;;5023924;28;20385;-73
2021/09/19 11:34:05;;;;;;;3.80;1.92;;;19.60;77.20;;;;;;5016448;28;20026;-74
2021/09/19 11:36:31;;;;;;;4.07;2.00;;;19.60;76.60;;;;;;5040772;28;20017;-74
2021/09/19 11:38:57;;;;;;;4.25;1.80;;;19.60;76.90;;;;;;5048352;28;20027;-74
2021/09/19 11:41:24;;;;;;;3.83;1.98;;;19.60;76.10;;;;;;5038555;28;20060;-74
2021/09/19 11:43:52;;;;;;;5.70;2.13;;;19.60;76.20;;;;;;5030840;28;20029;-73
2021/09/19 11:46:21;;;;;;;4.03;1.80;;;19.60;76.20;;;;;;5012895;28;20022;-74
2021/09/19 11:48:46;;;;;;;5.22;2.05;;;19.60;76.10;;;;;;5027880;28;20030;-73
2021/09/19 11:51:15;;;;;;;4.00;1.83;;;19.60;76.10;;;;;;5012768;28;20040;-74
2021/09/19 11:53:47;;;;;;;3.33;1.90;;;19.60;76.20;;;;;;5030986;28;20032;-74
2021/09/19 11:56:14;;;;;;;;;;;19.60;76.30;;;;;;5032770;28;20022;-74
2021/09/19 11:58:40;;;;;;;3.33;1.73;;;19.60;76.80;;;;;;5032281;28;20328;-73
2021/09/19 12:01:06;;;;;;;3.88;2.00;;;19.60;76.20;;;;;;5035518;28;20029;-74
2021/09/19 12:03:33;;;;;;;3.50;1.95;;;19.60;76.20;;;;;;5038117;28;20518;-74
2021/09/19 12:06:00;;;;;;;3.97;1.90;;;19.60;76.20;;;;;;5044344;28;20025;-73
2021/09/19 12:08:27;;;;;;;4.90;1.92;;;19.60;76.20;;;;;;5031311;28;20029;-74
2021/09/19 12:10:54;;;;;;;3.33;1.95;;;19.60;76.20;;;;;;5034668;28;20174;-73
2021/09/19 12:13:28;;;;;;;5.07;1.90;;;19.60;76.40;;;;;;5044616;28;20548;-73
2021/09/19 12:16:03;;;;;;;3.75;1.80;;;19.60;76.30;;;;;;5050639;28;20110;-73
2021/09/19 12:18:31;;;;;;;4.32;1.83;;;19.60;76.40;;;;;;5050646;28;20028;-72
2021/09/19 12:20:59;;;;;;;3.22;2.00;;;19.60;76.30;;;;;;5033997;28;20391;-74
2021/09/19 12:23:25;;;;;;;3.80;1.80;;;19.50;76.30;;;;;;5030062;28;20024;-72
2021/09/19 12:25:51;;;;;;;3.55;1.80;;;19.60;76.20;;;;;;5030834;28;20648;-72
2021/09/19 12:28:31;;;;;;;3.53;1.90;;;19.60;76.30;;;;;;5026527;28;20029;-74
2021/09/19 12:30:57;;;;;;;4.15;2.15;;;19.60;76.30;;;;;;5023594;28;20589;-74
2021/09/19 12:33:22;;;;;;;4.63;2.05;;;19.60;76.80;;;;;;5012207;28;20117;-74
2021/09/19 12:35:48;;;;;;;3.85;2.10;;;19.50;76.90;;;;;;5030574;28;20395;-74
2021/09/19 12:38:16;;;;;;;4.40;1.90;;;19.50;76.50;;;;;;5028437;28;20099;-73
2021/09/19 12:40:42;;;;;;;3.25;1.73;;;19.50;76.60;;;;;;5028087;28;20494;-74
2021/09/19 12:43:14;;;;;;;4.95;1.95;;;19.50;76.30;;;;;;5019676;28;20490;-73
2021/09/19 12:45:50;;;;;;;3.38;2.00;;;19.50;76.20;;;;;;5028633;28;20034;-73
2021/09/19 12:48:25;;;;;;;4.43;2.00;;;19.50;75.80;;;;;;5013933;28;20573;-74
2021/09/19 12:50:59;;;;;;;4.90;2.10;;;19.50;75.60;;;;;;5021773;28;20494;-74